Terminal Aerodrome Forecast
Issued by NWS

Home | Current Version | Previous Version | Text Only | Print | Product List | Glossary On
Versions: 1 2 3 4 5 6 7 8 9 10 11 12
000
FTUS45 KRIW 311700
TAFJAC
TAF
KJAC 311729Z 3118/0118 VRB05KT P6SM SCT130 BKN200
     FM311900 18008KT P6SM SCT130 BKN200
     FM010200 VRB05KT P6SM SCT060 BKN120
     FM011100 18007KT P6SM VCSH SCT025 BKN050
      AMD LTD TO CLD VIS AND WIND=

USA.gov is the U.S. government's official web portal to all federal, state and local government web resources and services.